Terminal Aerodrome Forecast
Issued by NWS

Home | Current Version | Previous Version | Text Only | Print | Product List | Glossary On
Versions: 1 2 3 4 5 6 7 8 9 10 11 12 13 14 15 16 17 18 19 20 21 22 23
000
FTUS46 KPDT 102339
TAFBDN
TAF
KBDN 102339Z 1100/1124 35005KT P6SM SKC
     FM110300 00000KT 2SM BR OVC002
     FM110400 00000KT 1/4SM FZFG OVC001
     FM111000 15003KT P6SM SCT250
      TEMPO 1110/1111 5SM BR BKN002 BKN250
     FM112000 35006KT P6SM SKC=

USA.gov is the U.S. government's official web portal to all federal, state and local government web resources and services.